Time;durP1;ratioP1;P1;durP2;ratioP2;P2;SDS_P1;SDS_P2;PMS_P1;PMS_P2;Temp;Humidity;BMP_temperature;BMP_pressure;BME280_temperature;BME280_humidity;BME280_pressure;Samples;Min_cycle;Max_cycle;Signal;HPM_P1;HPM_P2
2021/03/17 00:00:51;;;;;;;4.30;3.97;;;3.90;99.90;;;;;;5005032;28;21121;-71
2021/03/17 00:03:17;;;;;;;5.53;4.53;;;3.90;99.90;;;;;;5006822;28;20438;-72
2021/03/17 00:05:44;;;;;;;4.37;3.90;;;3.90;99.90;;;;;;5004103;28;20786;-72
2021/03/17 00:08:10;;;;;;;4.43;3.53;;;3.90;99.90;;;;;;5005413;28;20206;-72
2021/03/17 00:10:38;;;;;;;4.87;4.20;;;3.90;99.90;;;;;;5010228;28;20494;-72
2021/03/17 00:13:04;;;;;;;6.40;4.80;;;3.90;99.90;;;;;;5003286;28;20212;-72
2021/03/17 00:15:33;;;;;;;6.40;4.40;;;3.90;99.90;;;;;;5006712;28;20469;-73
2021/03/17 00:17:59;;;;;;;5.33;4.83;;;4.00;99.90;;;;;;5008960;28;20448;-73
2021/03/17 00:20:26;;;;;;;5.30;4.23;;;3.90;99.90;;;;;;5004080;28;20467;-72
2021/03/17 00:22:52;;;;;;;4.57;4.10;;;3.90;99.90;;;;;;5003919;28;20211;-72
2021/03/17 00:25:21;;;;;;;4.90;4.50;;;3.90;99.90;;;;;;5003824;28;20786;-72
2021/03/17 00:27:47;;;;;;;4.70;4.23;;;3.90;99.90;;;;;;5003455;28;20538;-73
2021/03/17 00:30:13;;;;;;;7.83;4.37;;;3.90;99.90;;;;;;5003397;28;20538;-73
2021/03/17 00:32:39;;;;;;;3.40;3.10;;;3.90;99.90;;;;;;5005933;28;20215;-72
2021/03/17 00:35:05;;;;;;;4.67;4.20;;;4.00;99.90;;;;;;5008919;28;20451;-72
2021/03/17 00:37:30;;;;;;;4.03;3.73;;;4.00;99.90;;;;;;5009287;28;20191;-72
2021/03/17 00:39:56;;;;;;;4.20;3.80;;;4.00;99.90;;;;;;5003798;28;20842;-72
2021/03/17 00:42:21;;;;;;;3.70;3.40;;;3.90;99.90;;;;;;5001965;28;20184;-72
2021/03/17 00:44:47;;;;;;;3.23;3.03;;;3.90;99.90;;;;;;5000898;28;20193;-72
2021/03/17 00:47:12;;;;;;;3.93;3.60;;;4.00;99.90;;;;;;5004129;28;20188;-73
2021/03/17 00:49:38;;;;;;;5.10;4.37;;;4.00;99.90;;;;;;5006960;28;20216;-73
2021/03/17 00:52:04;;;;;;;4.10;3.80;;;4.00;99.90;;;;;;5006924;28;20213;-73
2021/03/17 00:54:29;;;;;;;5.40;4.60;;;4.00;99.90;;;;;;5006793;28;20173;-73
2021/03/17 00:56:55;;;;;;;4.97;4.20;;;4.00;99.90;;;;;;5007428;28;20172;-73
2021/03/17 00:59:20;;;;;;;7.83;4.60;;;3.90;99.90;;;;;;5005222;28;20188;-72
2021/03/17 01:01:46;;;;;;;5.13;4.53;;;3.90;99.90;;;;;;5004717;28;20189;-71
2021/03/17 01:04:11;;;;;;;5.43;4.90;;;3.90;99.90;;;;;;5002900;28;20247;-73
2021/03/17 01:06:37;;;;;;;6.47;5.13;;;3.90;99.90;;;;;;5006517;28;20215;-73
2021/03/17 01:09:04;;;;;;;5.37;4.23;;;3.90;99.90;;;;;;5001835;28;20214;-70
2021/03/17 01:11:29;;;;;;;4.90;3.70;;;3.90;99.90;;;;;;5004563;28;20442;-73
2021/03/17 01:13:55;;;;;;;4.53;4.13;;;3.80;99.90;;;;;;5002410;28;20951;-72
2021/03/17 01:16:20;;;;;;;4.93;4.43;;;3.80;99.90;;;;;;5005760;28;20739;-71
2021/03/17 01:18:46;;;;;;;6.83;4.20;;;3.80;99.90;;;;;;5004350;28;20195;-73
2021/03/17 01:21:12;;;;;;;5.97;4.80;;;3.80;99.90;;;;;;5008114;28;20213;-72
2021/03/17 01:23:37;;;;;;;5.57;4.50;;;3.80;99.90;;;;;;5000773;28;20182;-73
2021/03/17 01:26:03;;;;;;;4.87;4.07;;;3.80;99.90;;;;;;5004681;28;20191;-71
2021/03/17 01:28:29;;;;;;;4.40;4.00;;;3.80;99.90;;;;;;5005563;28;20531;-75
2021/03/17 01:30:58;;;;;;;5.00;4.50;;;3.80;99.90;;;;;;5002245;28;20705;-72
2021/03/17 01:33:30;;;;;;;4.60;3.90;;;3.80;99.90;;;;;;5006533;28;20864;-72
2021/03/17 01:35:56;;;;;;;4.90;4.40;;;3.80;99.90;;;;;;5001139;28;20446;-72
2021/03/17 01:38:23;;;;;;;5.30;4.37;;;3.80;99.90;;;;;;5004797;28;20522;-73
2021/03/17 01:40:49;;;;;;;4.67;4.20;;;3.80;99.90;;;;;;5006073;28;20463;-73
2021/03/17 01:43:16;;;;;;;5.00;4.00;;;3.80;99.90;;;;;;5003796;28;20514;-72
2021/03/17 01:45:42;;;;;;;6.13;4.23;;;3.80;99.90;;;;;;5006989;28;21007;-71
2021/03/17 01:48:08;;;;;;;4.80;4.40;;;3.80;99.90;;;;;;5005351;28;20470;-73
2021/03/17 01:50:44;;;;;;;5.90;5.30;;;3.80;99.90;;;;;;5002144;28;20444;-74
2021/03/17 01:53:23;;;;;;;5.23;4.73;;;3.80;99.90;;;;;;5002604;28;20466;-74
2021/03/17 01:55:48;;;;;;;5.03;4.53;;;3.80;99.90;;;;;;5008676;28;20457;-72
2021/03/17 01:58:14;;;;;;;4.63;4.10;;;3.90;99.90;;;;;;5009776;28;20435;-71
2021/03/17 02:00:40;;;;;;;4.43;3.80;;;3.80;99.90;;;;;;4999832;28;20212;-72
2021/03/17 02:03:07;;;;;;;5.00;4.37;;;3.80;99.90;;;;;;5006224;28;20204;-72
2021/03/17 02:05:36;;;;;;;3.87;3.57;;;3.80;99.90;;;;;;5006200;28;20422;-74
2021/03/17 02:08:12;;;;;;;4.90;4.30;;;3.80;99.90;;;;;;5002854;28;20473;-73
2021/03/17 02:10:38;;;;;;;4.30;3.83;;;3.80;99.90;;;;;;5001932;28;20457;-72
2021/03/17 02:13:10;;;;;;;7.83;3.60;;;3.80;99.90;;;;;;5001841;28;20451;-73
2021/03/17 02:16:01;;;;;;;4.93;3.70;;;3.70;99.90;;;;;;5006942;28;20824;-73
2021/03/17 02:18:45;;;;;;;4.50;3.97;;;3.80;99.90;;;;;;5002612;28;20952;-72
2021/03/17 02:21:40;;;;;;;4.63;3.50;;;3.70;99.90;;;;;;5005183;28;20463;-72
2021/03/17 02:24:32;;;;;;;2.93;2.63;;;3.70;99.90;;;;;;5007758;28;20458;-74
2021/03/17 02:27:54;;;;;;;3.30;3.00;;;3.60;99.90;;;;;;5004032;28;20441;-72
2021/03/17 02:30:46;;;;;;;3.30;3.03;;;3.60;99.90;;;;;;4965870;28;20482;-74
2021/03/17 02:33:39;;;;;;;3.47;3.17;;;3.60;99.90;;;;;;4966986;28;21122;-73
2021/03/17 02:36:12;;;;;;;2.47;2.27;;;3.70;99.90;;;;;;4993207;28;21457;-74
2021/03/17 02:38:43;;;;;;;2.50;2.27;;;3.70;99.90;;;;;;5010739;28;20984;-72
2021/03/17 02:41:13;;;;;;;4.17;3.77;;;3.60;99.90;;;;;;5002833;28;21006;-74
2021/03/17 02:43:45;;;;;;;2.40;2.20;;;3.60;99.90;;;;;;5001127;28;20481;-74
2021/03/17 02:46:14;;;;;;;2.50;2.23;;;3.60;99.90;;;;;;5007479;28;20435;-72
2021/03/17 02:49:02;;;;;;;2.40;2.20;;;3.50;99.90;;;;;;5008689;28;21009;-74
2021/03/17 02:51:37;;;;;;;8.30;2.63;;;3.50;99.90;;;;;;5009989;28;20515;-73
2021/03/17 02:54:05;;;;;;;2.27;2.07;;;3.50;99.90;;;;;;5005283;28;20777;-72
2021/03/17 02:56:36;;;;;;;2.27;2.17;;;3.40;99.90;;;;;;5005195;28;20419;-72
2021/03/17 02:59:04;;;;;;;3.87;3.00;;;3.40;99.90;;;;;;5002808;28;20974;-72
2021/03/17 03:01:30;;;;;;;4.20;2.90;;;3.40;99.90;;;;;;5006640;28;20787;-72
2021/03/17 03:03:56;;;;;;;2.80;2.60;;;3.40;99.90;;;;;;5005534;28;20454;-73
2021/03/17 03:06:23;;;;;;;2.97;2.50;;;3.40;99.90;;;;;;5003803;28;20424;-73
2021/03/17 03:08:49;;;;;;;3.20;2.90;;;3.30;99.90;;;;;;5003503;28;20520;-71
2021/03/17 03:11:18;;;;;;;5.90;2.70;;;3.30;99.90;;;;;;5008237;28;20556;-71
2021/03/17 03:13:46;;;;;;;2.67;2.47;;;3.30;99.90;;;;;;5002649;28;20423;-71
2021/03/17 03:16:13;;;;;;;6.80;2.67;;;3.30;99.90;;;;;;5004635;28;20438;-76
2021/03/17 03:18:41;;;;;;;2.17;2.07;;;3.30;99.90;;;;;;5008436;28;20536;-74
2021/03/17 03:21:07;;;;;;;3.40;2.93;;;3.30;99.90;;;;;;5008361;28;20524;-73
2021/03/17 03:23:34;;;;;;;3.00;2.47;;;3.30;99.90;;;;;;5003928;28;20509;-74
2021/03/17 03:26:01;;;;;;;2.83;2.63;;;3.30;99.90;;;;;;5006708;28;20959;-72
2021/03/17 03:28:27;;;;;;;2.83;2.63;;;3.30;99.90;;;;;;5002385;28;20488;-72
2021/03/17 03:30:54;;;;;;;2.20;2.00;;;3.30;99.90;;;;;;5008243;28;20461;-71
2021/03/17 03:33:21;;;;;;;2.20;2.10;;;3.30;99.90;;;;;;5011492;28;20441;-73
2021/03/17 03:35:47;;;;;;;3.60;2.33;;;3.30;99.90;;;;;;5009046;28;20436;-72
2021/03/17 03:38:13;;;;;;;2.77;2.57;;;3.30;99.90;;;;;;5005719;28;20819;-72
2021/03/17 03:40:40;;;;;;;2.23;2.13;;;3.30;99.90;;;;;;5010022;28;20469;-71
2021/03/17 03:43:08;;;;;;;2.07;1.97;;;3.20;99.90;;;;;;5006804;28;20608;-71
2021/03/17 03:45:35;;;;;;;2.00;1.90;;;3.20;99.90;;;;;;5010678;28;20492;-71
2021/03/17 03:48:04;;;;;;;1.93;1.83;;;3.20;99.90;;;;;;5005288;28;20945;-72
2021/03/17 03:50:31;;;;;;;8.63;2.13;;;3.20;99.90;;;;;;5005991;28;20488;-72
2021/03/17 03:53:11;;;;;;;2.87;2.30;;;3.20;99.90;;;;;;5005954;28;20538;-73
2021/03/17 03:55:55;;;;;;;2.60;2.33;;;3.20;99.90;;;;;;5006138;28;20896;-75
2021/03/17 03:58:33;;;;;;;2.70;2.50;;;3.10;99.90;;;;;;5013030;28;20477;-73
2021/03/17 04:01:11;;;;;;;2.73;2.50;;;3.10;99.90;;;;;;5007842;28;20470;-72
2021/03/17 04:03:42;;;;;;;3.10;2.90;;;3.10;99.90;;;;;;5005278;28;20465;-73
2021/03/17 04:06:10;;;;;;;2.53;2.33;;;3.20;99.90;;;;;;5005358;28;20837;-71
2021/03/17 04:08:42;;;;;;;3.17;2.97;;;3.10;99.90;;;;;;5001284;28;20469;-72
2021/03/17 04:11:08;;;;;;;2.87;2.57;;;3.20;99.90;;;;;;5008618;28;20466;-72
2021/03/17 04:13:36;;;;;;;2.97;2.77;;;3.20;99.90;;;;;;5002779;28;20418;-73
2021/03/17 04:16:02;;;;;;;3.17;2.97;;;3.20;99.90;;;;;;5003623;28;20532;-71
2021/03/17 04:18:36;;;;;;;3.67;3.37;;;3.20;99.90;;;;;;5004009;28;20526;-71
2021/03/17 04:21:06;;;;;;;3.97;3.67;;;3.20;99.90;;;;;;5007673;28;20471;-71
2021/03/17 04:23:35;;;;;;;3.57;3.33;;;3.20;99.90;;;;;;5003139;28;20437;-71
2021/03/17 04:26:02;;;;;;;3.90;3.60;;;3.30;99.90;;;;;;5004299;28;20450;-73
2021/03/17 04:28:28;;;;;;;3.87;3.50;;;3.30;99.90;;;;;;5005289;28;20462;-72
2021/03/17 04:30:59;;;;;;;4.03;3.73;;;3.30;99.90;;;;;;5004446;28;20464;-72
2021/03/17 04:33:26;;;;;;;4.30;3.80;;;3.40;99.90;;;;;;5010635;28;21074;-72
2021/03/17 04:35:57;;;;;;;4.17;3.77;;;3.40;99.90;;;;;;5004423;28;20405;-73
2021/03/17 04:38:25;;;;;;;4.70;4.30;;;3.40;99.90;;;;;;5006095;28;20926;-73
2021/03/17 04:40:52;;;;;;;5.30;4.80;;;3.40;99.90;;;;;;5008667;28;20477;-72
2021/03/17 04:43:18;;;;;;;5.47;4.53;;;3.30;99.90;;;;;;5003579;28;20525;-75
2021/03/17 04:45:46;;;;;;;4.70;4.30;;;3.40;99.90;;;;;;5007136;28;20421;-74
2021/03/17 04:48:11;;;;;;;5.23;4.73;;;3.40;99.90;;;;;;5005912;28;20461;-72
2021/03/17 04:50:38;;;;;;;5.70;4.77;;;3.40;99.90;;;;;;5001718;28;20925;-68
2021/03/17 04:53:04;;;;;;;6.37;5.60;;;3.30;99.90;;;;;;5003902;28;20190;-72
2021/03/17 04:55:29;;;;;;;8.83;6.40;;;3.40;99.90;;;;;;5003003;28;20420;-72
2021/03/17 04:57:56;;;;;;;5.53;4.93;;;3.40;99.90;;;;;;5004073;28;20190;-73
2021/03/17 05:00:23;;;;;;;7.30;6.00;;;3.40;99.90;;;;;;5002837;28;20213;-72
2021/03/17 05:03:00;;;;;;;7.97;6.87;;;3.30;99.90;;;;;;5002546;28;20520;-74
2021/03/17 05:05:28;;;;;;;8.87;6.43;;;3.40;99.90;;;;;;5003347;28;20424;-72
2021/03/17 05:07:54;;;;;;;14.73;7.27;;;3.40;99.90;;;;;;5005144;28;20815;-71
2021/03/17 05:10:22;;;;;;;7.77;6.47;;;3.40;99.90;;;;;;5008485;28;20504;-72
2021/03/17 05:12:48;;;;;;;7.07;6.37;;;3.40;99.90;;;;;;5004562;28;20548;-74
2021/03/17 05:15:14;;;;;;;7.47;6.70;;;3.40;99.90;;;;;;5002815;28;20481;-72
2021/03/17 05:17:40;;;;;;;9.20;8.03;;;3.40;99.90;;;;;;5004933;28;20452;-73
2021/03/17 05:20:12;;;;;;;8.23;7.30;;;3.50;99.90;;;;;;5005201;28;20444;-73
2021/03/17 05:22:38;;;;;;;12.30;6.73;;;3.40;99.90;;;;;;5006667;28;20422;-72
2021/03/17 05:25:06;;;;;;;8.33;7.37;;;3.40;99.90;;;;;;5001554;28;20997;-71
2021/03/17 05:27:35;;;;;;;9.47;7.70;;;3.50;99.90;;;;;;5003834;28;20943;-72
2021/03/17 05:30:06;;;;;;;9.33;8.33;;;3.50;99.90;;;;;;5003642;28;20914;-73
2021/03/17 05:32:34;;;;;;;11.17;7.60;;;3.40;99.90;;;;;;5007881;28;21003;-71
2021/03/17 05:35:08;;;;;;;12.63;8.07;;;3.40;99.90;;;;;;5015248;28;20516;-71
2021/03/17 05:37:34;;;;;;;11.43;9.30;;;3.50;99.90;;;;;;5001056;28;20924;-71
2021/03/17 05:40:00;;;;;;;12.33;9.40;;;3.50;99.90;;;;;;5001947;28;20471;-71
2021/03/17 05:42:26;;;;;;;10.53;8.20;;;3.50;99.90;;;;;;5003785;28;20434;-71
2021/03/17 05:44:53;;;;;;;11.43;8.90;;;3.60;99.90;;;;;;5005764;28;20434;-72
2021/03/17 05:47:20;;;;;;;11.57;9.17;;;3.60;99.90;;;;;;5010147;28;20442;-71
2021/03/17 05:49:47;;;;;;;10.50;8.50;;;3.60;99.90;;;;;;5007513;28;21083;-71
2021/03/17 05:52:16;;;;;;;13.83;8.47;;;3.60;99.90;;;;;;5004846;28;20971;-71
2021/03/17 05:54:42;;;;;;;14.00;9.27;;;3.60;99.90;;;;;;5001070;28;20451;-72
2021/03/17 05:57:09;;;;;;;16.30;10.27;;;3.50;99.90;;;;;;5008740;28;20440;-70
2021/03/17 05:59:35;;;;;;;14.50;8.90;;;3.50;99.90;;;;;;5014143;28;20982;-69
2021/03/17 06:02:01;;;;;;;14.07;11.23;;;3.50;99.90;;;;;;5011290;28;20422;-69
2021/03/17 06:04:28;;;;;;;15.53;11.47;;;3.50;99.90;;;;;;5001434;28;20444;-71
2021/03/17 06:07:00;;;;;;;12.70;9.70;;;3.50;99.90;;;;;;4988253;28;20409;-70
2021/03/17 06:09:27;;;;;;;14.67;11.37;;;3.50;99.90;;;;;;5007141;28;20535;-71
2021/03/17 06:11:55;;;;;;;21.23;11.50;;;3.50;99.90;;;;;;5015208;28;20486;-71
2021/03/17 06:14:23;;;;;;;14.63;10.13;;;3.50;99.90;;;;;;5007764;28;20453;-71
2021/03/17 06:16:58;;;;;;;18.23;11.90;;;3.50;99.90;;;;;;5014568;28;20496;-70
2021/03/17 06:19:28;;;;;;;18.63;12.40;;;3.60;99.90;;;;;;4987650;28;20526;-70
2021/03/17 06:21:55;;;;;;;20.83;11.93;;;3.60;99.90;;;;;;5001721;28;20920;-71
2021/03/17 06:24:21;;;;;;;15.10;11.37;;;3.60;99.90;;;;;;4999555;28;20415;-70
2021/03/17 06:26:47;;;;;;;23.30;13.50;;;3.50;99.90;;;;;;5002855;28;20493;-71
2021/03/17 06:29:14;;;;;;;17.03;11.50;;;3.50;99.90;;;;;;5002496;28;20630;-70
2021/03/17 06:31:40;;;;;;;16.47;11.40;;;3.60;99.90;;;;;;4999696;28;20447;-70
2021/03/17 06:34:05;;;;;;;15.83;11.60;;;3.60;99.90;;;;;;5003475;28;20529;-70
2021/03/17 06:36:31;;;;;;;18.83;11.50;;;3.60;99.90;;;;;;5001483;28;20470;-71
2021/03/17 06:39:10;;;;;;;18.50;12.90;;;3.60;99.90;;;;;;5000464;28;20195;-71
2021/03/17 06:42:08;;;;;;;18.63;12.80;;;3.60;99.90;;;;;;5004104;28;20258;-70
2021/03/17 06:44:34;;;;;;;17.07;11.50;;;3.60;99.90;;;;;;4970347;28;20446;-71
2021/03/17 06:47:18;;;;;;;18.07;12.53;;;3.60;99.90;;;;;;5018338;28;20438;-70
2021/03/17 06:49:46;;;;;;;14.97;10.53;;;3.60;99.90;;;;;;5004165;28;20300;-71
2021/03/17 06:52:43;;;;;;;17.83;11.33;;;3.60;99.90;;;;;;5011085;28;20433;-72
2021/03/17 06:55:17;;;;;;;15.60;10.47;;;3.50;99.90;;;;;;4997240;28;20443;-70
2021/03/17 06:57:52;;;;;;;13.20;10.67;;;3.50;99.90;;;;;;5009458;28;20634;-70
2021/03/17 07:00:47;;;;;;;16.13;10.80;;;3.50;99.90;;;;;;4996871;28;20480;-69
2021/03/17 07:03:13;;;;;;;14.53;10.40;;;3.50;99.90;;;;;;4989398;28;20441;-69
2021/03/17 07:05:41;;;;;;;12.73;10.30;;;3.60;99.90;;;;;;5012782;28;20533;-70
2021/03/17 07:08:12;;;;;;;13.03;10.90;;;3.70;99.90;;;;;;5013911;28;20476;-70
2021/03/17 07:10:40;;;;;;;12.30;8.77;;;3.70;99.90;;;;;;5010773;28;20438;-70
2021/03/17 07:13:07;;;;;;;16.50;10.90;;;3.80;99.90;;;;;;4995211;28;20472;-71
2021/03/17 07:15:34;;;;;;;12.70;10.27;;;3.80;99.90;;;;;;5006230;28;20503;-71
2021/03/17 07:18:19;;;;;;;12.50;9.70;;;3.80;99.90;;;;;;5012703;28;20429;-71
2021/03/17 07:20:51;;;;;;;9.80;8.73;;;3.90;99.90;;;;;;5012755;28;20434;-71
2021/03/17 07:23:44;;;;;;;14.43;9.80;;;3.90;99.90;;;;;;5020211;28;20465;-70
2021/03/17 07:26:14;;;;;;;9.40;8.00;;;4.00;99.90;;;;;;5007358;28;20983;-70
2021/03/17 07:28:55;;;;;;;11.53;9.57;;;4.00;99.90;;;;;;5018771;28;20470;-70
2021/03/17 07:31:33;;;;;;;10.73;8.07;;;4.00;99.90;;;;;;5014177;28;20895;-70
2021/03/17 07:34:12;;;;;;;13.77;9.90;;;4.10;99.90;;;;;;5010926;28;20516;-69
2021/03/17 07:36:45;;;;;;;14.47;9.07;;;4.00;99.90;;;;;;5011664;28;20422;-69
2021/03/17 07:39:14;;;;;;;15.43;8.57;;;4.10;99.90;;;;;;5015289;28;20449;-69
2021/03/17 07:41:40;;;;;;;12.47;7.90;;;4.20;99.90;;;;;;5006155;28;20638;-71
2021/03/17 07:44:08;;;;;;;13.53;7.90;;;4.30;99.90;;;;;;5013392;28;20503;-70
2021/03/17 07:46:35;;;;;;;13.03;8.80;;;4.50;99.90;;;;;;5008656;28;20180;-70
2021/03/17 07:49:02;;;;;;;10.93;8.07;;;4.50;99.90;;;;;;5008499;28;20901;-70
2021/03/17 07:51:28;;;;;;;10.07;8.77;;;4.50;99.90;;;;;;5019170;28;20848;-70
2021/03/17 07:53:55;;;;;;;12.40;7.63;;;4.60;99.90;;;;;;5007011;28;20514;-70
2021/03/17 07:56:25;;;;;;;8.83;7.93;;;4.60;99.90;;;;;;5013182;28;20437;-70
2021/03/17 07:58:52;;;;;;;10.97;8.10;;;4.60;99.90;;;;;;5014625;28;20572;-70
2021/03/17 08:01:19;;;;;;;13.27;7.57;;;4.70;99.90;;;;;;5019005;28;20458;-70
2021/03/17 08:03:49;;;;;;;11.63;7.80;;;4.70;99.90;;;;;;5015889;28;20430;-70
2021/03/17 08:06:17;;;;;;;7.67;6.87;;;4.70;99.90;;;;;;5014027;28;20419;-70
2021/03/17 08:08:44;;;;;;;8.93;6.60;;;4.80;99.90;;;;;;5020638;28;20554;-69
2021/03/17 08:11:14;;;;;;;9.00;6.70;;;4.90;99.90;;;;;;5019097;28;20460;-70
2021/03/17 08:13:42;;;;;;;9.50;6.87;;;5.10;99.90;;;;;;5019344;28;20958;-71
2021/03/17 08:16:09;;;;;;;10.50;6.60;;;5.30;99.90;;;;;;5007708;28;20461;-70
2021/03/17 08:18:34;;;;;;;16.93;7.80;;;5.70;99.90;;;;;;5012259;28;20439;-71
2021/03/17 08:21:01;;;;;;;13.33;6.23;;;6.10;99.90;;;;;;5013131;28;20522;-71
2021/03/17 08:23:48;;;;;;;12.70;7.00;;;6.40;99.90;;;;;;5010775;28;20599;-70
2021/03/17 08:26:42;;;;;;;12.90;8.27;;;6.80;99.90;;;;;;5011534;28;20430;-70
2021/03/17 08:29:13;;;;;;;13.50;7.63;;;6.90;99.90;;;;;;5007516;28;20591;-69
2021/03/17 08:31:38;;;;;;;10.00;7.80;;;7.10;99.90;;;;;;5018239;28;20437;-70
2021/03/17 08:34:20;;;;;;;11.47;8.50;;;7.10;99.90;;;;;;5013613;28;20501;-70
2021/03/17 08:36:48;;;;;;;11.63;8.07;;;7.60;99.90;;;;;;5014724;28;20194;-72
2021/03/17 08:39:32;;;;;;;15.97;7.43;;;7.80;99.90;;;;;;5011999;28;20843;-70
2021/03/17 08:42:04;;;;;;;14.67;8.40;;;8.10;99.90;;;;;;5014666;28;20443;-70
2021/03/17 08:44:39;;;;;;;11.90;8.60;;;8.10;99.90;;;;;;5009771;28;20438;-70
2021/03/17 08:47:23;;;;;;;17.53;8.80;;;7.90;99.90;;;;;;5009964;28;21127;-70
2021/03/17 08:49:51;;;;;;;10.20;7.37;;;7.40;99.90;;;;;;5015366;28;20455;-70
2021/03/17 08:52:19;;;;;;;14.93;10.00;;;7.20;99.90;;;;;;5019513;28;20414;-70
2021/03/17 08:54:50;;;;;;;13.10;9.03;;;7.20;99.90;;;;;;5011635;28;20437;-71
2021/03/17 08:57:16;;;;;;;9.30;7.37;;;7.30;99.90;;;;;;5018077;28;20434;-70
2021/03/17 08:59:43;;;;;;;13.80;8.30;;;7.20;99.90;;;;;;5013202;28;20481;-69
2021/03/17 09:02:26;;;;;;;13.37;8.03;;;7.50;99.90;;;;;;5017474;28;20523;-70
2021/03/17 09:04:53;;;;;;;11.60;8.00;;;8.50;99.90;;;;;;5010011;28;20803;-71
2021/03/17 09:07:19;;;;;;;8.53;6.50;;;9.30;99.90;;;;;;5007944;28;20586;-71
2021/03/17 09:09:53;;;;;;;8.17;6.87;;;9.80;99.90;;;;;;5009868;28;20571;-70
2021/03/17 09:12:39;;;;;;;7.87;6.17;;;10.40;99.90;;;;;;5005762;28;20450;-69
2021/03/17 09:15:13;;;;;;;10.90;6.77;;;11.10;99.90;;;;;;5011616;28;20802;-71
2021/03/17 09:17:47;;;;;;;8.50;6.13;;;11.10;99.90;;;;;;5011523;28;20507;-70
2021/03/17 09:20:38;;;;;;;14.30;9.60;;;10.60;99.90;;;;;;5012985;28;20459;-71
2021/03/17 09:23:20;;;;;;;11.97;10.30;;;9.90;99.90;;;;;;5009985;28;20851;-70
2021/03/17 09:25:56;;;;;;;12.30;7.60;;;9.70;99.90;;;;;;5110960;27;20521;-70
2021/03/17 09:28:28;;;;;;;13.47;7.67;;;9.30;99.90;;;;;;5112639;28;20943;-71
2021/03/17 09:30:57;;;;;;;9.10;7.73;;;9.00;99.90;;;;;;5110269;28;20486;-71
2021/03/17 09:33:29;;;;;;;7.63;6.83;;;9.40;99.90;;;;;;5100114;28;20963;-71
2021/03/17 09:35:58;;;;;;;8.50;6.50;;;9.90;99.90;;;;;;5100615;28;20434;-71
2021/03/17 09:38:28;;;;;;;6.80;5.07;;;10.40;99.90;;;;;;5096225;28;20423;-70
2021/03/17 09:40:58;;;;;;;7.70;5.10;;;10.40;99.90;;;;;;5102868;28;20464;-71
2021/03/17 09:43:32;;;;;;;7.73;5.30;;;10.20;99.90;;;;;;5099420;28;20437;-70
2021/03/17 09:45:59;;;;;;;6.70;4.57;;;9.80;99.90;;;;;;5106462;28;20950;-71
2021/03/17 09:48:26;;;;;;;6.63;5.30;;;9.30;99.90;;;;;;5102320;28;20456;-70
2021/03/17 09:50:58;;;;;;;7.00;4.80;;;9.50;99.90;;;;;;5111178;27;20544;-71
2021/03/17 09:53:23;;;;;;;9.00;5.73;;;9.80;99.90;;;;;;5112054;27;20448;-70
2021/03/17 09:55:49;;;;;;;8.50;5.70;;;9.50;99.90;;;;;;5110352;27;20495;-70
2021/03/17 09:58:15;;;;;;;8.10;4.40;;;9.50;99.90;;;;;;5098602;27;20438;-71
2021/03/17 10:00:41;;;;;;;4.87;4.33;;;9.40;99.90;;;;;;5099858;28;21865;-71
2021/03/17 10:03:12;;;;;;;5.30;4.90;;;9.30;99.90;;;;;;5095752;28;20911;-71
2021/03/17 10:05:38;;;;;;;6.47;5.10;;;9.20;99.90;;;;;;5105838;28;20569;-71
2021/03/17 10:08:05;;;;;;;7.30;4.90;;;9.00;99.90;;;;;;5107905;27;20450;-70
2021/03/17 10:10:31;;;;;;;6.50;4.90;;;8.90;99.90;;;;;;5112544;28;20894;-71
2021/03/17 10:12:57;;;;;;;6.47;5.27;;;8.80;99.90;;;;;;5101204;28;20519;-70
2021/03/17 10:15:23;;;;;;;9.37;4.73;;;8.80;99.90;;;;;;5108849;27;20436;-71
2021/03/17 10:17:50;;;;;;;7.57;5.10;;;8.70;99.90;;;;;;5102002;28;20220;-70
2021/03/17 10:20:22;;;;;;;12.60;4.47;;;8.90;99.90;;;;;;5101949;28;20467;-71
2021/03/17 10:22:55;;;;;;;4.90;4.07;;;8.80;99.90;;;;;;5099635;28;20948;-70
2021/03/17 10:25:24;;;;;;;6.97;5.03;;;8.80;99.90;;;;;;5099898;28;20817;-71
2021/03/17 10:27:52;;;;;;;5.83;4.63;;;8.70;99.90;;;;;;5106433;27;20431;-71
2021/03/17 10:30:31;;;;;;;4.37;3.90;;;8.90;99.90;;;;;;5113320;28;20447;-70
2021/03/17 10:33:01;;;;;;;3.73;3.43;;;9.00;99.90;;;;;;5105444;28;20441;-71
2021/03/17 10:35:29;;;;;;;4.77;3.53;;;9.40;99.90;;;;;;5099525;27;20434;-69
2021/03/17 10:37:54;;;;;;;6.30;3.80;;;9.30;99.90;;;;;;5092930;28;20446;-70
2021/03/17 10:40:23;;;;;;;4.57;3.30;;;9.10;99.90;;;;;;5092679;28;20459;-70
2021/03/17 10:43:05;;;;;;;4.47;3.30;;;9.20;99.90;;;;;;5086395;28;20446;-70
2021/03/17 10:45:52;;;;;;;4.13;3.20;;;9.40;99.90;;;;;;5088930;28;20467;-70
2021/03/17 10:48:23;;;;;;;4.13;3.23;;;10.10;99.90;;;;;;5088556;28;20460;-70
2021/03/17 10:50:48;;;;;;;3.47;3.17;;;10.90;99.90;;;;;;5081983;28;20977;-71
2021/03/17 10:53:19;;;;;;;5.70;3.50;;;11.20;99.90;;;;;;5090720;28;20425;-70
2021/03/17 10:55:46;;;;;;;3.57;3.27;;;10.80;99.90;;;;;;5085106;28;20192;-70
2021/03/17 10:58:17;;;;;;;4.67;3.80;;;10.10;99.90;;;;;;5084568;28;20467;-70
2021/03/17 11:00:51;;;;;;;4.23;3.30;;;9.60;99.90;;;;;;5089028;28;21042;-70
2021/03/17 11:03:40;;;;;;;2.97;2.57;;;9.10;99.90;;;;;;5082387;28;20503;-70
2021/03/17 11:06:22;;;;;;;3.10;2.80;;;8.50;99.90;;;;;;5086796;28;20434;-70
2021/03/17 11:09:04;;;;;;;6.00;3.93;;;8.30;99.90;;;;;;5080508;28;20451;-71
2021/03/17 11:11:32;;;;;;;8.53;4.50;;;8.10;99.90;;;;;;5085054;28;20962;-70
2021/03/17 11:13:57;;;;;;;10.67;5.50;;;7.90;99.90;;;;;;5092744;28;20465;-70
2021/03/17 11:16:32;;;;;;;5.30;3.63;;;7.70;99.90;;;;;;5091134;28;20555;-71
2021/03/17 11:19:03;;;;;;;5.57;4.17;;;7.50;99.90;;;;;;5086972;28;20176;-71
2021/03/17 11:21:28;;;;;;;6.00;4.40;;;7.40;99.90;;;;;;5085508;28;20492;-71
2021/03/17 11:23:56;;;;;;;5.00;3.87;;;7.40;99.90;;;;;;5084772;28;21336;-71
2021/03/17 11:26:28;;;;;;;5.20;3.33;;;7.30;99.90;;;;;;5089152;28;20179;-71
2021/03/17 11:28:55;;;;;;;4.47;3.67;;;7.30;99.90;;;;;;5083036;28;20477;-71
2021/03/17 11:31:31;;;;;;;4.90;4.23;;;7.10;99.90;;;;;;5089471;28;21004;-71
2021/03/17 11:33:57;;;;;;;5.77;4.23;;;7.10;99.90;;;;;;5087739;28;20443;-70
2021/03/17 11:36:23;;;;;;;9.13;5.60;;;6.90;99.90;;;;;;5092259;28;20520;-71
2021/03/17 11:38:49;;;;;;;7.30;3.97;;;6.70;99.90;;;;;;5096573;28;20525;-71
2021/03/17 11:41:15;;;;;;;6.03;4.43;;;6.40;99.90;;;;;;5083858;28;20558;-69
2021/03/17 11:43:41;;;;;;;7.60;4.70;;;6.20;99.90;;;;;;5095549;28;20444;-71
2021/03/17 11:46:07;;;;;;;8.47;5.57;;;6.00;99.90;;;;;;5092521;28;20798;-70
2021/03/17 11:48:32;;;;;;;9.57;6.70;;;5.80;99.90;;;;;;5085907;28;20186;-70
2021/03/17 11:51:05;;;;;;;11.80;6.57;;;5.60;99.90;;;;;;5083268;28;20197;-71
2021/03/17 11:53:32;;;;;;;12.73;6.70;;;5.30;99.90;;;;;;5097685;28;20182;-70
2021/03/17 11:55:57;;;;;;;10.07;7.73;;;5.10;99.90;;;;;;5095036;28;20522;-70
2021/03/17 11:58:23;;;;;;;10.03;6.87;;;5.00;99.90;;;;;;5089173;28;20532;-71
2021/03/17 12:00:49;;;;;;;11.13;8.10;;;5.00;99.90;;;;;;5084457;28;20509;-71
2021/03/17 12:03:14;;;;;;;12.63;7.90;;;5.00;99.90;;;;;;5080337;28;20177;-70
2021/03/17 12:05:41;;;;;;;12.80;7.93;;;5.10;99.90;;;;;;5089060;28;20584;-70
2021/03/17 12:08:08;;;;;;;10.40;6.77;;;5.10;99.90;;;;;;5087077;28;20184;-69
2021/03/17 12:10:33;;;;;;;11.80;8.13;;;5.10;99.90;;;;;;5090155;28;20498;-70
2021/03/17 12:12:59;;;;;;;11.40;7.70;;;5.00;99.90;;;;;;5087074;28;20421;-70
2021/03/17 12:15:26;;;;;;;18.27;9.20;;;4.90;99.90;;;;;;5090472;28;20200;-69
2021/03/17 12:17:52;;;;;;;13.20;9.00;;;4.80;99.90;;;;;;5079720;28;20178;-69
2021/03/17 12:20:20;;;;;;;13.20;9.30;;;4.80;99.90;;;;;;5078830;28;20456;-69
2021/03/17 12:22:46;;;;;;;16.07;9.73;;;4.60;99.90;;;;;;5074562;28;20811;-70
2021/03/17 12:25:13;;;;;;;12.53;8.07;;;4.50;99.90;;;;;;5074996;28;21038;-69
2021/03/17 12:27:39;;;;;;;12.73;8.27;;;4.30;99.90;;;;;;5078726;28;20429;-70
2021/03/17 12:30:08;;;;;;;15.60;9.47;;;4.20;99.90;;;;;;5079960;28;20550;-71
2021/03/17 12:32:34;;;;;;;11.23;8.77;;;4.10;99.90;;;;;;5077430;28;20424;-68
2021/03/17 12:34:59;;;;;;;11.10;7.90;;;4.10;99.90;;;;;;5087788;28;21322;-71
2021/03/17 12:37:25;;;;;;;13.20;8.60;;;4.10;99.90;;;;;;5086297;28;20196;-71
2021/03/17 12:39:50;;;;;;;11.37;7.77;;;3.90;99.90;;;;;;5097852;28;20222;-70
2021/03/17 12:42:16;;;;;;;13.23;8.07;;;3.90;99.90;;;;;;5083115;28;20550;-70
2021/03/17 12:44:41;;;;;;;12.93;8.80;;;3.80;99.90;;;;;;5079372;28;20212;-69
2021/03/17 12:47:08;;;;;;;11.87;8.07;;;3.80;99.90;;;;;;5081301;28;20177;-71
2021/03/17 12:49:35;;;;;;;14.57;7.87;;;3.70;99.90;;;;;;5079618;28;20193;-71
2021/03/17 12:52:00;;;;;;;12.03;7.83;;;3.60;99.90;;;;;;5080954;28;20442;-71
2021/03/17 12:54:26;;;;;;;9.90;7.07;;;3.70;99.90;;;;;;5082113;28;20425;-72
2021/03/17 12:56:52;;;;;;;9.07;7.73;;;3.70;99.90;;;;;;5073083;28;20189;-70
2021/03/17 12:59:17;;;;;;;10.10;7.47;;;3.80;99.90;;;;;;5078582;28;20191;-69
2021/03/17 13:01:43;;;;;;;9.30;7.17;;;3.80;99.90;;;;;;5083161;28;20179;-70
2021/03/17 13:04:08;;;;;;;11.40;6.80;;;3.70;99.90;;;;;;5080677;28;20213;-70
2021/03/17 13:06:35;;;;;;;10.97;7.20;;;3.70;99.90;;;;;;5080006;28;20254;-70